sensor_id;sensor_type;location;lat;lon;timestamp;pressure;altitude;pressure_sealevel;temperature;humidity
11643;BME280;5877;50.930;6.918;2023-07-20T00:01:00;100576.00;;;17.69;58.76
11643;BME280;5877;50.930;6.918;2023-07-20T00:05:52;100767.19;;;18.94;58.91
11643;BME280;5877;50.930;6.918;2023-07-20T00:10:44;100830.34;;;19.34;59.42
11643;BME280;5877;50.930;6.918;2023-07-20T00:15:37;100828.50;;;19.50;58.79
11643;BME280;5877;50.930;6.918;2023-07-20T00:20:29;100759.25;;;19.30;57.92
11643;BME280;5877;50.930;6.918;2023-07-20T00:25:23;100270.34;;;16.22;57.35
11643;BME280;5877;50.930;6.918;2023-07-20T00:30:16;100830.91;;;19.92;57.26
11643;BME280;5877;50.930;6.918;2023-07-20T00:35:09;100731.59;;;19.31;57.15
11643;BME280;5877;50.930;6.918;2023-07-20T00:40:04;100826.41;;;19.67;58.76
11643;BME280;5877;50.930;6.918;2023-07-20T00:45:02;100818.94;;;19.54;59.53
11643;BME280;5877;50.930;6.918;2023-07-20T00:49:55;100650.59;;;18.45;60.14
11643;BME280;5877;50.930;6.918;2023-07-20T00:54:47;100613.59;;;18.03;61.16
11643;BME280;5877;50.930;6.918;2023-07-20T00:59:39;100747.47;;;18.70;62.51
11643;BME280;5877;50.930;6.918;2023-07-20T01:04:36;100819.16;;;19.27;62.59
11643;BME280;5877;50.930;6.918;2023-07-20T01:14:51;100644.72;;;18.33;62.04
11643;BME280;5877;50.930;6.918;2023-07-20T01:19:44;100431.88;;;17.01;61.80
11643;BME280;5877;50.930;6.918;2023-07-20T01:25:08;100814.38;;;19.44;62.47
11643;BME280;5877;50.930;6.918;2023-07-20T01:35:28;100523.84;;;17.43;62.84
11643;BME280;5877;50.930;6.918;2023-07-20T01:40:22;100789.28;;;18.95;64.02
11643;BME280;5877;50.930;6.918;2023-07-20T01:45:17;100370.91;;;16.12;64.89
11643;BME280;5877;50.930;6.918;2023-07-20T01:50:10;100755.09;;;18.56;65.35
11643;BME280;5877;50.930;6.918;2023-07-20T01:55:02;100786.00;;;18.62;66.85
11643;BME280;5877;50.930;6.918;2023-07-20T01:59:56;100698.59;;;18.08;67.82
11643;BME280;5877;50.930;6.918;2023-07-20T02:04:50;100814.50;;;18.77;68.12
11643;BME280;5877;50.930;6.918;2023-07-20T02:09:42;100802.53;;;18.79;67.55
11643;BME280;5877;50.930;6.918;2023-07-20T02:14:34;100812.25;;;18.54;69.51
11643;BME280;5877;50.930;6.918;2023-07-20T02:19:29;100810.53;;;18.32;71.47
11643;BME280;5877;50.930;6.918;2023-07-20T02:24:23;100334.03;;;15.14;72.32
11643;BME280;5877;50.930;6.918;2023-07-20T02:29:17;100679.66;;;17.15;75.12
11643;BME280;5877;50.930;6.918;2023-07-20T02:34:11;100805.84;;;17.97;75.32
11643;BME280;5877;50.930;6.918;2023-07-20T02:39:05;100779.50;;;17.91;74.23
11643;BME280;5877;50.930;6.918;2023-07-20T02:44:00;100613.53;;;16.72;75.60
11643;BME280;5877;50.930;6.918;2023-07-20T02:48:53;100775.25;;;17.58;76.39
11643;BME280;5877;50.930;6.918;2023-07-20T02:53:47;100782.69;;;17.56;76.69
11643;BME280;5877;50.930;6.918;2023-07-20T02:58:42;100818.97;;;17.77;76.76
11643;BME280;5877;50.930;6.918;2023-07-20T03:03:39;100610.78;;;16.35;77.04
11643;BME280;5877;50.930;6.918;2023-07-20T03:08:32;100335.56;;;14.45;76.95
11643;BME280;5877;50.930;6.918;2023-07-20T03:13:24;100492.44;;;15.60;76.36
11643;BME280;5877;50.930;6.918;2023-07-20T03:18:17;100829.94;;;17.59;77.03
11643;BME280;5877;50.930;6.918;2023-07-20T03:23:09;100680.81;;;16.66;76.98
11643;BME280;5877;50.930;6.918;2023-07-20T03:28:01;100832.56;;;17.53;77.29
11643;BME280;5877;50.930;6.918;2023-07-20T03:32:57;100754.19;;;17.14;76.77
11643;BME280;5877;50.930;6.918;2023-07-20T03:37:50;100792.56;;;17.65;74.62
11643;BME280;5877;50.930;6.918;2023-07-20T03:42:42;100819.53;;;17.79;74.82
11643;BME280;5877;50.930;6.918;2023-07-20T03:47:34;100821.84;;;18.07;72.25
11643;BME280;5877;50.930;6.918;2023-07-20T03:52:27;100579.94;;;16.50;71.03
11643;BME280;5877;50.930;6.918;2023-07-20T03:57:22;100757.53;;;18.00;69.66
11643;BME280;5877;50.930;6.918;2023-07-20T04:02:15;100759.56;;;17.88;69.33
11643;BME280;5877;50.930;6.918;2023-07-20T04:07:07;100821.22;;;18.42;68.22
11643;BME280;5877;50.930;6.918;2023-07-20T04:12:01;100846.94;;;18.74;67.78
11643;BME280;5877;50.930;6.918;2023-07-20T04:16:54;100449.72;;;16.69;65.82
11643;BME280;5877;50.930;6.918;2023-07-20T04:21:49;100751.16;;;18.64;64.67
11643;BME280;5877;50.930;6.918;2023-07-20T04:26:42;100800.75;;;19.16;63.41
11643;BME280;5877;50.930;6.918;2023-07-20T04:31:41;100832.22;;;19.44;62.77
11643;BME280;5877;50.930;6.918;2023-07-20T04:36:36;100839.94;;;19.45;62.89
11643;BME280;5877;50.930;6.918;2023-07-20T04:41:30;100771.44;;;18.90;62.70
11643;BME280;5877;50.930;6.918;2023-07-20T04:46:26;100831.09;;;19.20;63.36
11643;BME280;5877;50.930;6.918;2023-07-20T04:51:20;100804.75;;;19.18;62.85
11643;BME280;5877;50.930;6.918;2023-07-20T04:56:18;100835.44;;;19.61;62.00
11643;BME280;5877;50.930;6.918;2023-07-20T05:01:11;100810.91;;;19.44;61.43
11643;BME280;5877;50.930;6.918;2023-07-20T05:06:06;100861.28;;;19.91;60.94
11643;BME280;5877;50.930;6.918;2023-07-20T05:11:01;100558.38;;;18.41;59.84
11643;BME280;5877;50.930;6.918;2023-07-20T05:15:54;100847.13;;;20.26;59.07
11643;BME280;5877;50.930;6.918;2023-07-20T05:20:47;100751.28;;;19.75;59.01
11643;BME280;5877;50.930;6.918;2023-07-20T05:25:41;100809.31;;;20.04;59.22
11643;BME280;5877;50.930;6.918;2023-07-20T05:30:34;100863.63;;;20.44;59.33
11643;BME280;5877;50.930;6.918;2023-07-20T05:35:28;100875.94;;;20.99;57.82
11643;BME280;5877;50.930;6.918;2023-07-20T05:40:22;100867.88;;;21.58;55.37
11643;BME280;5877;50.930;6.918;2023-07-20T05:45:14;100754.34;;;20.83;55.36
11643;BME280;5877;50.930;6.918;2023-07-20T05:50:08;100875.84;;;21.97;54.13
11643;BME280;5877;50.930;6.918;2023-07-20T05:55:00;100836.31;;;22.95;51.53
11643;BME280;5877;50.930;6.918;2023-07-20T05:59:57;100861.97;;;23.71;49.75
11643;BME280;5877;50.930;6.918;2023-07-20T06:04:49;100889.22;;;25.79;44.05
11643;BME280;5877;50.930;6.918;2023-07-20T06:09:43;100821.47;;;25.68;43.24
11643;BME280;5877;50.930;6.918;2023-07-20T06:14:36;100870.16;;;25.67;44.16
11643;BME280;5877;50.930;6.918;2023-07-20T06:19:28;100801.16;;;25.62;43.32
11643;BME280;5877;50.930;6.918;2023-07-20T06:24:23;100752.28;;;24.57;44.22
11643;BME280;5877;50.930;6.918;2023-07-20T06:29:19;100884.09;;;24.42;47.06
11643;BME280;5877;50.930;6.918;2023-07-20T06:34:19;100869.91;;;23.76;47.38
11643;BME280;5877;50.930;6.918;2023-07-20T06:39:14;100909.63;;;24.39;46.95
11643;BME280;5877;50.930;6.918;2023-07-20T06:44:10;100865.75;;;25.93;42.73
11643;BME280;5877;50.930;6.918;2023-07-20T06:49:07;100780.59;;;28.13;37.40
11643;BME280;5877;50.930;6.918;2023-07-20T06:54:02;100713.78;;;27.16;37.77
11643;BME280;5877;50.930;6.918;2023-07-20T06:58:58;100702.75;;;24.63;42.60
11643;BME280;5877;50.930;6.918;2023-07-20T07:03:57;100832.59;;;24.40;44.96
11643;BME280;5877;50.930;6.918;2023-07-20T07:08:53;100810.63;;;25.60;42.19
11643;BME280;5877;50.930;6.918;2023-07-20T07:13:46;100507.16;;;27.00;35.50
11643;BME280;5877;50.930;6.918;2023-07-20T07:18:45;100713.16;;;27.75;35.84
11643;BME280;5877;50.930;6.918;2023-07-20T07:23:39;100745.41;;;26.25;38.92
11643;BME280;5877;50.930;6.918;2023-07-20T07:28:36;100906.78;;;26.07;40.97
11643;BME280;5877;50.930;6.918;2023-07-20T07:33:33;100879.06;;;26.86;39.29
11643;BME280;5877;50.930;6.918;2023-07-20T07:38:26;100797.56;;;25.44;41.03
11643;BME280;5877;50.930;6.918;2023-07-20T07:43:44;100902.28;;;25.94;41.94
11643;BME280;5877;50.930;6.918;2023-07-20T07:48:43;100909.34;;;30.75;32.82
11643;BME280;5877;50.930;6.918;2023-07-20T07:53:36;100901.69;;;34.94;27.22
11643;BME280;5877;50.930;6.918;2023-07-20T08:04:06;100897.88;;;31.74;30.31
11643;BME280;5877;50.930;6.918;2023-07-20T08:08:58;100921.69;;;30.02;32.91
11643;BME280;5877;50.930;6.918;2023-07-20T08:13:54;100901.16;;;32.11;29.79
11643;BME280;5877;50.930;6.918;2023-07-20T08:18:49;100901.44;;;35.36;25.71
11643;BME280;5877;50.930;6.918;2023-07-20T08:23:44;100796.16;;;37.38;22.15
11643;BME280;5877;50.930;6.918;2023-07-20T08:28:39;100895.63;;;38.67;21.13
11643;BME280;5877;50.930;6.918;2023-07-20T08:33:32;100677.59;;;37.10;21.07
11643;BME280;5877;50.930;6.918;2023-07-20T08:38:27;100737.53;;;35.69;22.48
11643;BME280;5877;50.930;6.918;2023-07-20T08:43:23;100916.50;;;33.55;26.20
11643;BME280;5877;50.930;6.918;2023-07-20T08:48:20;100835.50;;;36.22;22.58
11643;BME280;5877;50.930;6.918;2023-07-20T08:53:15;100876.06;;;37.73;20.50
11643;BME280;5877;50.930;6.918;2023-07-20T08:58:12;100778.63;;;34.42;23.15
11643;BME280;5877;50.930;6.918;2023-07-20T09:03:07;100904.41;;;33.53;25.28
11643;BME280;5877;50.930;6.918;2023-07-20T09:08:01;100846.72;;;32.54;25.84
11643;BME280;5877;50.930;6.918;2023-07-20T09:12:55;100844.66;;;33.60;25.41
11643;BME280;5877;50.930;6.918;2023-07-20T09:17:51;100889.44;;;35.81;22.92
11643;BME280;5877;50.930;6.918;2023-07-20T09:22:48;100743.41;;;34.90;22.23
11643;BME280;5877;50.930;6.918;2023-07-20T09:27:47;100723.66;;;34.37;22.62
11643;BME280;5877;50.930;6.918;2023-07-20T09:32:46;100896.34;;;35.71;21.92
11643;BME280;5877;50.930;6.918;2023-07-20T09:37:58;100898.25;;;33.56;24.62
11643;BME280;5877;50.930;6.918;2023-07-20T09:43:00;100901.47;;;31.22;27.52
11643;BME280;5877;50.930;6.918;2023-07-20T09:48:14;100752.47;;;28.64;30.01
11643;BME280;5877;50.930;6.918;2023-07-20T09:53:16;100893.53;;;29.83;30.10
11643;BME280;5877;50.930;6.918;2023-07-20T09:58:12;100872.69;;;31.17;28.38
11643;BME280;5877;50.930;6.918;2023-07-20T10:03:06;100887.47;;;33.05;25.20
11643;BME280;5877;50.930;6.918;2023-07-20T10:08:03;100875.94;;;34.15;23.26
11643;BME280;5877;50.930;6.918;2023-07-20T10:13:01;100754.31;;;34.04;21.74
11643;BME280;5877;50.930;6.918;2023-07-20T10:23:45;100819.41;;;33.40;23.50
11643;BME280;5877;50.930;6.918;2023-07-20T10:30:03;100867.47;;;32.78;24.42
11643;BME280;5877;50.930;6.918;2023-07-20T10:36:24;100813.63;;;30.22;26.98
11643;BME280;5877;50.930;6.918;2023-07-20T10:42:22;100867.59;;;29.94;27.46
11643;BME280;5877;50.930;6.918;2023-07-20T10:48:23;100855.69;;;30.07;27.71
11643;BME280;5877;50.930;6.918;2023-07-20T10:53:48;100855.25;;;29.72;28.94
11643;BME280;5877;50.930;6.918;2023-07-20T10:59:37;100733.44;;;28.82;28.51
11643;BME280;5877;50.930;6.918;2023-07-20T11:05:51;100795.75;;;29.39;28.23
11643;BME280;5877;50.930;6.918;2023-07-20T11:11:46;100826.81;;;29.54;28.20
11643;BME280;5877;50.930;6.918;2023-07-20T11:16:45;100854.78;;;30.03;26.93
11643;BME280;5877;50.930;6.918;2023-07-20T11:21:42;100661.94;;;29.12;26.55
11643;BME280;5877;50.930;6.918;2023-07-20T11:26:53;100847.91;;;30.54;26.60
11643;BME280;5877;50.930;6.918;2023-07-20T11:31:47;100842.69;;;30.86;25.69
11643;BME280;5877;50.930;6.918;2023-07-20T11:36:41;100810.38;;;31.21;25.98
11643;BME280;5877;50.930;6.918;2023-07-20T11:41:59;100666.50;;;30.18;26.49
11643;BME280;5877;50.930;6.918;2023-07-20T11:47:07;100809.41;;;31.13;25.75
11643;BME280;5877;50.930;6.918;2023-07-20T11:52:01;100837.94;;;31.51;26.22
11643;BME280;5877;50.930;6.918;2023-07-20T11:56:54;100786.50;;;30.46;26.72
11643;BME280;5877;50.930;6.918;2023-07-20T12:01:49;100756.53;;;30.27;26.44
11643;BME280;5877;50.930;6.918;2023-07-20T12:06:46;100709.59;;;29.98;26.20
11643;BME280;5877;50.930;6.918;2023-07-20T12:11:49;100830.22;;;30.32;26.72
11643;BME280;5877;50.930;6.918;2023-07-20T12:16:55;100833.53;;;28.64;28.51
11643;BME280;5877;50.930;6.918;2023-07-20T12:21:50;100835.66;;;28.21;29.87
11643;BME280;5877;50.930;6.918;2023-07-20T12:26:42;100617.47;;;26.01;30.96
11643;BME280;5877;50.930;6.918;2023-07-20T12:31:36;100832.69;;;26.98;31.56
11643;BME280;5877;50.930;6.918;2023-07-20T12:36:30;100498.16;;;24.66;31.89
11643;BME280;5877;50.930;6.918;2023-07-20T12:41:23;100835.00;;;26.65;32.26
11643;BME280;5877;50.930;6.918;2023-07-20T12:46:16;100667.81;;;25.92;31.83
11643;BME280;5877;50.930;6.918;2023-07-20T12:51:11;100835.03;;;27.77;31.09
11643;BME280;5877;50.930;6.918;2023-07-20T12:56:04;100828.75;;;28.02;30.63
11643;BME280;5877;50.930;6.918;2023-07-20T13:00:59;100824.63;;;28.43;29.63
11643;BME280;5877;50.930;6.918;2023-07-20T13:05:57;100821.31;;;29.08;28.59
11643;BME280;5877;50.930;6.918;2023-07-20T13:10:54;100654.16;;;28.24;28.11
11643;BME280;5877;50.930;6.918;2023-07-20T13:15:48;100811.91;;;29.27;27.15
11643;BME280;5877;50.930;6.918;2023-07-20T13:20:42;100819.28;;;29.38;27.71
11643;BME280;5877;50.930;6.918;2023-07-20T13:25:35;100755.91;;;29.60;26.88
11643;BME280;5877;50.930;6.918;2023-07-20T13:30:27;100710.94;;;29.80;26.10
11643;BME280;5877;50.930;6.918;2023-07-20T13:35:19;100749.25;;;29.58;26.95
11643;BME280;5877;50.930;6.918;2023-07-20T13:40:12;100803.66;;;29.89;26.65
11643;BME280;5877;50.930;6.918;2023-07-20T13:45:06;100796.19;;;29.41;26.92
11643;BME280;5877;50.930;6.918;2023-07-20T13:49:58;100737.88;;;28.86;27.23
11643;BME280;5877;50.930;6.918;2023-07-20T13:54:56;100591.94;;;27.99;26.85
11643;BME280;5877;50.930;6.918;2023-07-20T13:59:48;100743.66;;;29.99;26.21
11643;BME280;5877;50.930;6.918;2023-07-20T14:04:43;100777.72;;;30.61;25.31
11643;BME280;5877;50.930;6.918;2023-07-20T14:09:35;100694.81;;;29.96;25.57
11643;BME280;5877;50.930;6.918;2023-07-20T14:14:28;100705.09;;;29.66;26.11
11643;BME280;5877;50.930;6.918;2023-07-20T14:19:21;100626.81;;;29.12;26.12
11643;BME280;5877;50.930;6.918;2023-07-20T14:24:13;100711.34;;;29.00;26.32
11643;BME280;5877;50.930;6.918;2023-07-20T14:29:10;100684.94;;;28.64;26.20
11643;BME280;5877;50.930;6.918;2023-07-20T14:34:03;100746.00;;;29.52;25.81
11643;BME280;5877;50.930;6.918;2023-07-20T14:38:55;100552.84;;;28.71;24.42
11643;BME280;5877;50.930;6.918;2023-07-20T14:43:47;100575.28;;;28.39;25.39
11643;BME280;5877;50.930;6.918;2023-07-20T14:48:40;100675.59;;;28.83;25.55
11643;BME280;5877;50.930;6.918;2023-07-20T14:53:37;100681.91;;;28.87;25.72
11643;BME280;5877;50.930;6.918;2023-07-20T14:58:32;100721.53;;;28.83;26.07
11643;BME280;5877;50.930;6.918;2023-07-20T15:03:26;100713.59;;;28.77;26.13
11643;BME280;5877;50.930;6.918;2023-07-20T15:08:19;100626.09;;;28.16;26.26
11643;BME280;5877;50.930;6.918;2023-07-20T15:13:12;100659.16;;;28.55;26.56
11643;BME280;5877;50.930;6.918;2023-07-20T15:18:07;100679.22;;;28.66;26.88
11643;BME280;5877;50.930;6.918;2023-07-20T15:23:02;100707.06;;;28.46;28.13
11643;BME280;5877;50.930;6.918;2023-07-20T15:28:19;100373.00;;;26.55;28.45
11643;BME280;5877;50.930;6.918;2023-07-20T15:33:16;100609.44;;;27.93;28.49
11643;BME280;5877;50.930;6.918;2023-07-20T15:38:14;100607.56;;;27.64;28.79
11643;BME280;5877;50.930;6.918;2023-07-20T15:43:09;100686.06;;;28.01;28.80
11643;BME280;5877;50.930;6.918;2023-07-20T15:48:05;100535.44;;;27.23;28.88
11643;BME280;5877;50.930;6.918;2023-07-20T15:53:02;100663.41;;;27.93;29.67
11643;BME280;5877;50.930;6.918;2023-07-20T15:57:58;100575.78;;;27.40;29.20
11643;BME280;5877;50.930;6.918;2023-07-20T16:02:51;100626.38;;;27.35;29.73
11643;BME280;5877;50.930;6.918;2023-07-20T16:07:47;100568.09;;;26.66;30.55
11643;BME280;5877;50.930;6.918;2023-07-20T16:12:39;100525.53;;;26.08;30.97
11643;BME280;5877;50.930;6.918;2023-07-20T16:17:33;100664.06;;;26.79;30.98
11643;BME280;5877;50.930;6.918;2023-07-20T16:22:26;100633.97;;;26.60;30.78
11643;BME280;5877;50.930;6.918;2023-07-20T16:27:18;100554.03;;;26.17;30.16
11643;BME280;5877;50.930;6.918;2023-07-20T16:32:10;100627.94;;;26.80;29.82
11643;BME280;5877;50.930;6.918;2023-07-20T16:37:05;100619.44;;;26.44;30.19
11643;BME280;5877;50.930;6.918;2023-07-20T16:42:21;100649.97;;;26.57;30.73
11643;BME280;5877;50.930;6.918;2023-07-20T16:47:18;100536.81;;;25.84;30.50
11643;BME280;5877;50.930;6.918;2023-07-20T16:52:13;100653.94;;;26.59;30.54
11643;BME280;5877;50.930;6.918;2023-07-20T16:57:08;100560.84;;;25.89;30.49
11643;BME280;5877;50.930;6.918;2023-07-20T17:02:01;100642.97;;;26.12;31.27
11643;BME280;5877;50.930;6.918;2023-07-20T17:06:54;100468.97;;;25.13;31.52
11643;BME280;5877;50.930;6.918;2023-07-20T17:11:46;100633.94;;;26.08;31.61
11643;BME280;5877;50.930;6.918;2023-07-20T17:16:40;100567.66;;;25.38;31.97
11643;BME280;5877;50.930;6.918;2023-07-20T17:21:32;100622.41;;;25.99;31.53
11643;BME280;5877;50.930;6.918;2023-07-20T17:26:24;100633.78;;;25.87;32.05
11643;BME280;5877;50.930;6.918;2023-07-20T17:31:19;100383.84;;;23.45;33.19
11643;BME280;5877;50.930;6.918;2023-07-20T17:36:13;100612.59;;;24.84;33.26
11643;BME280;5877;50.930;6.918;2023-07-20T17:41:12;100510.59;;;24.17;33.16
11643;BME280;5877;50.930;6.918;2023-07-20T17:46:06;100627.72;;;24.80;33.55
11643;BME280;5877;50.930;6.918;2023-07-20T17:51:02;100584.66;;;24.63;33.62
11643;BME280;5877;50.930;6.918;2023-07-20T17:55:56;100622.34;;;24.80;33.73
11643;BME280;5877;50.930;6.918;2023-07-20T18:00:48;100423.38;;;23.39;33.44
11643;BME280;5877;50.930;6.918;2023-07-20T18:05:40;100619.06;;;24.61;33.70
11643;BME280;5877;50.930;6.918;2023-07-20T18:10:35;100360.09;;;22.93;33.72
11643;BME280;5877;50.930;6.918;2023-07-20T18:15:30;100621.06;;;24.33;34.68
11643;BME280;5877;50.930;6.918;2023-07-20T18:20:24;100551.00;;;23.99;34.68
11643;BME280;5877;50.930;6.918;2023-07-20T18:25:18;100306.59;;;22.25;34.51
11643;BME280;5877;50.930;6.918;2023-07-20T18:30:11;100618.97;;;24.16;34.82
11643;BME280;5877;50.930;6.918;2023-07-20T18:35:11;100620.69;;;24.12;35.02
11643;BME280;5877;50.930;6.918;2023-07-20T18:40:04;100507.03;;;23.09;35.20
11643;BME280;5877;50.930;6.918;2023-07-20T18:44:58;100566.81;;;23.45;35.65
11643;BME280;5877;50.930;6.918;2023-07-20T18:49:50;100618.13;;;23.52;36.40
11643;BME280;5877;50.930;6.918;2023-07-20T18:54:46;100485.41;;;22.91;36.17
11643;BME280;5877;50.930;6.918;2023-07-20T18:59:40;100561.78;;;23.03;36.52
11643;BME280;5877;50.930;6.918;2023-07-20T19:04:38;100615.28;;;23.35;36.73
11643;BME280;5877;50.930;6.918;2023-07-20T19:09:32;100552.06;;;22.74;37.44
11643;BME280;5877;50.930;6.918;2023-07-20T19:14:24;100615.84;;;23.18;36.82
11643;BME280;5877;50.930;6.918;2023-07-20T19:19:19;100616.31;;;23.07;37.53
11643;BME280;5877;50.930;6.918;2023-07-20T19:24:14;100622.59;;;22.83;37.69
11643;BME280;5877;50.930;6.918;2023-07-20T19:29:07;100628.59;;;22.75;38.48
11643;BME280;5877;50.930;6.918;2023-07-20T19:34:02;100288.50;;;20.68;37.86
11643;BME280;5877;50.930;6.918;2023-07-20T19:38:56;100596.66;;;22.65;37.76
11643;BME280;5877;50.930;6.918;2023-07-20T19:43:50;100579.78;;;22.32;38.53
11643;BME280;5877;50.930;6.918;2023-07-20T19:48:43;100597.03;;;22.40;38.14
11643;BME280;5877;50.930;6.918;2023-07-20T19:53:35;100620.16;;;22.49;38.77
11643;BME280;5877;50.930;6.918;2023-07-20T19:58:28;100499.81;;;21.55;38.80
11643;BME280;5877;50.930;6.918;2023-07-20T20:03:28;100463.28;;;21.32;39.18
11643;BME280;5877;50.930;6.918;2023-07-20T20:08:23;100431.81;;;21.05;39.45
11643;BME280;5877;50.930;6.918;2023-07-20T20:13:17;100560.31;;;21.89;39.14
11643;BME280;5877;50.930;6.918;2023-07-20T20:18:11;100632.88;;;22.39;39.13
11643;BME280;5877;50.930;6.918;2023-07-20T20:23:18;100619.66;;;22.47;39.18
11643;BME280;5877;50.930;6.918;2023-07-20T20:28:13;100624.78;;;22.44;39.13
11643;BME280;5877;50.930;6.918;2023-07-20T20:33:08;100552.53;;;22.11;39.53
11643;BME280;5877;50.930;6.918;2023-07-20T20:38:00;100628.41;;;22.53;39.18
11643;BME280;5877;50.930;6.918;2023-07-20T20:42:55;100621.38;;;22.57;39.23
11643;BME280;5877;50.930;6.918;2023-07-20T20:47:47;100605.34;;;22.38;39.51
11643;BME280;5877;50.930;6.918;2023-07-20T20:52:39;100678.00;;;22.45;39.83
11643;BME280;5877;50.930;6.918;2023-07-20T20:57:32;100600.75;;;21.58;46.60
11643;BME280;5877;50.930;6.918;2023-07-20T21:02:25;100578.66;;;20.32;56.65
11643;BME280;5877;50.930;6.918;2023-07-20T21:07:17;100730.34;;;20.38;60.31
11643;BME280;5877;50.930;6.918;2023-07-20T21:12:10;100713.19;;;19.75;63.71
11643;BME280;5877;50.930;6.918;2023-07-20T21:17:05;100734.78;;;19.48;65.84
11643;BME280;5877;50.930;6.918;2023-07-20T21:21:57;100582.81;;;18.43;67.18
11643;BME280;5877;50.930;6.918;2023-07-20T21:26:50;100418.25;;;17.50;66.15
11643;BME280;5877;50.930;6.918;2023-07-20T21:31:42;100543.72;;;18.23;67.05
11643;BME280;5877;50.930;6.918;2023-07-20T21:36:34;100574.03;;;18.22;67.26
11643;BME280;5877;50.930;6.918;2023-07-20T21:41:28;100728.09;;;19.00;68.39
11643;BME280;5877;50.930;6.918;2023-07-20T21:46:22;100738.47;;;18.91;67.96
11643;BME280;5877;50.930;6.918;2023-07-20T21:51:15;100668.16;;;18.46;68.64
11643;BME280;5877;50.930;6.918;2023-07-20T21:56:11;100622.09;;;18.21;68.86
11643;BME280;5877;50.930;6.918;2023-07-20T22:01:04;100672.91;;;18.39;70.92
11643;BME280;5877;50.930;6.918;2023-07-20T22:06:19;100612.91;;;17.66;77.77
11643;BME280;5877;50.930;6.918;2023-07-20T22:11:13;100697.69;;;17.82;81.33
11643;BME280;5877;50.930;6.918;2023-07-20T22:16:08;100655.47;;;17.44;81.12
11643;BME280;5877;50.930;6.918;2023-07-20T22:21:01;100703.88;;;17.98;80.83
11643;BME280;5877;50.930;6.918;2023-07-20T22:25:57;100639.72;;;17.69;78.22
11643;BME280;5877;50.930;6.918;2023-07-20T22:30:51;100529.44;;;16.99;78.15
11643;BME280;5877;50.930;6.918;2023-07-20T22:35:44;100584.34;;;17.41;81.45
11643;BME280;5877;50.930;6.918;2023-07-20T22:40:36;100589.53;;;17.68;77.23
11643;BME280;5877;50.930;6.918;2023-07-20T22:45:28;100550.13;;;17.44;78.57
11643;BME280;5877;50.930;6.918;2023-07-20T22:50:21;100679.28;;;18.38;76.26
11643;BME280;5877;50.930;6.918;2023-07-20T22:55:17;100660.03;;;17.96;76.60
11643;BME280;5877;50.930;6.918;2023-07-20T23:00:12;100578.94;;;17.68;75.23
11643;BME280;5877;50.930;6.918;2023-07-20T23:05:05;100554.88;;;17.42;74.78
11643;BME280;5877;50.930;6.918;2023-07-20T23:09:58;100664.41;;;18.42;73.23
11643;BME280;5877;50.930;6.918;2023-07-20T23:14:50;100605.34;;;18.00;72.10
11643;BME280;5877;50.930;6.918;2023-07-20T23:19:43;100592.59;;;18.02;71.73
11643;BME280;5877;50.930;6.918;2023-07-20T23:24:35;100534.06;;;17.66;71.81
11643;BME280;5877;50.930;6.918;2023-07-20T23:29:27;100635.44;;;18.41;71.50
11643;BME280;5877;50.930;6.918;2023-07-20T23:34:21;100630.88;;;18.26;72.41
11643;BME280;5877;50.930;6.918;2023-07-20T23:39:13;100591.34;;;17.62;73.96
11643;BME280;5877;50.930;6.918;2023-07-20T23:44:06;100622.28;;;17.83;73.38
11643;BME280;5877;50.930;6.918;2023-07-20T23:48:58;100465.53;;;16.59;75.53
11643;BME280;5877;50.930;6.918;2023-07-20T23:53:52;100529.13;;;16.91;78.44
11643;BME280;5877;50.930;6.918;2023-07-20T23:58:45;100615.72;;;17.54;77.49
